createdAt,value
2016-12-30T00:00:05.098Z,0
2016-12-30T00:05:04.746Z,0
2016-12-30T00:10:04.902Z,0
2016-12-30T00:15:05.026Z,0
2016-12-30T00:20:04.945Z,0
2016-12-30T00:25:05.075Z,1
2016-12-30T00:30:04.944Z,0
2016-12-30T00:35:04.797Z,2
2016-12-30T00:40:05.085Z,0
2016-12-30T00:45:04.964Z,2
2016-12-30T00:50:04.765Z,1
2016-12-30T00:55:04.764Z,0
2016-12-30T01:00:04.777Z,1
2016-12-30T01:05:04.589Z,2
2016-12-30T01:10:04.942Z,0
2016-12-30T01:15:04.543Z,0
2016-12-30T01:20:04.561Z,1
2016-12-30T01:25:04.454Z,0
2016-12-30T01:30:04.369Z,0
2016-12-30T01:35:05.060Z,0
2016-12-30T01:40:04.473Z,0
2016-12-30T01:45:04.645Z,0
2016-12-30T01:50:04.442Z,2
2016-12-30T01:55:04.435Z,2
2016-12-30T02:00:04.507Z,2
2016-12-30T02:05:04.361Z,0
2016-12-30T02:10:04.544Z,0
2016-12-30T02:15:04.494Z,2
2016-12-30T02:20:04.367Z,0
2016-12-30T02:25:04.462Z,0
2016-12-30T02:30:04.524Z,1
2016-12-30T02:35:04.629Z,3
2016-12-30T02:40:04.812Z,2
2016-12-30T02:45:04.620Z,0
2016-12-30T02:50:04.481Z,0
2016-12-30T02:55:04.593Z,0
2016-12-30T03:00:05.207Z,0
2016-12-30T03:05:08.130Z,0
2016-12-30T03:10:04.741Z,0
2016-12-30T03:15:04.668Z,0
2016-12-30T03:20:04.584Z,1
2016-12-30T03:25:04.445Z,0
2016-12-30T03:30:04.451Z,0
2016-12-30T03:35:04.468Z,0
2016-12-30T03:40:04.837Z,2
2016-12-30T03:45:04.894Z,2
2016-12-30T03:50:04.531Z,3
2016-12-30T03:55:04.494Z,2
2016-12-30T04:00:04.773Z,3
2016-12-30T04:05:06.862Z,2
2016-12-30T04:10:04.269Z,1
2016-12-30T04:15:05.173Z,2
2016-12-30T04:20:04.857Z,0
2016-12-30T04:25:05.003Z,2
2016-12-30T04:30:05.293Z,0
2016-12-30T04:35:05.237Z,0
2016-12-30T04:40:04.409Z,0
2016-12-30T04:45:05.260Z,0
2016-12-30T04:50:05.159Z,0
2016-12-30T04:55:04.388Z,0
2016-12-30T05:00:04.673Z,0
2016-12-30T05:05:04.517Z,0
2016-12-30T05:10:04.716Z,0
2016-12-30T05:15:04.601Z,0
2016-12-30T05:20:04.544Z,0
2016-12-30T05:25:04.582Z,1
2016-12-30T05:30:04.609Z,2
2016-12-30T05:35:04.615Z,3
2016-12-30T05:40:04.562Z,1
2016-12-30T05:45:04.328Z,0
2016-12-30T05:50:05.192Z,0
2016-12-30T05:55:04.269Z,0
2016-12-30T06:00:04.976Z,0
2016-12-30T06:05:04.864Z,0
2016-12-30T06:10:05.062Z,0
2016-12-30T06:15:05.204Z,0
2016-12-30T06:20:04.281Z,0
2016-12-30T06:25:04.276Z,0
2016-12-30T06:30:04.253Z,0
2016-12-30T06:35:05.371Z,1
2016-12-30T06:40:04.416Z,1
2016-12-30T06:45:05.122Z,1
2016-12-30T06:50:05.043Z,1
2016-12-30T06:55:05.195Z,0
2016-12-30T07:00:05.076Z,0
2016-12-30T07:05:04.213Z,0
2016-12-30T07:10:04.375Z,0
2016-12-30T07:15:04.422Z,2
2016-12-30T07:20:04.445Z,3
2016-12-30T07:25:04.649Z,3
2016-12-30T07:30:04.427Z,0
2016-12-30T07:35:04.473Z,0
2016-12-30T07:40:04.809Z,3
2016-12-30T07:45:04.545Z,2
2016-12-30T07:50:04.395Z,2
2016-12-30T07:55:04.450Z,2
2016-12-30T08:00:04.289Z,2
2016-12-30T08:05:05.184Z,3
2016-12-30T08:10:04.518Z,3
2016-12-30T08:15:04.385Z,2
2016-12-30T08:20:04.575Z,2
2016-12-30T08:25:04.683Z,1
2016-12-30T08:30:04.703Z,0
2016-12-30T08:35:04.602Z,0
2016-12-30T08:40:04.820Z,1
2016-12-30T08:45:04.890Z,2
2016-12-30T08:50:04.882Z,2
2016-12-30T08:55:04.904Z,2
2016-12-30T09:00:04.778Z,3
2016-12-30T09:05:04.876Z,7
2016-12-30T09:10:05.038Z,3
2016-12-30T09:15:05.024Z,5
2016-12-30T09:20:04.853Z,5
2016-12-30T09:25:05.028Z,3
2016-12-30T09:30:05.019Z,6
2016-12-30T09:35:04.827Z,4
2016-12-30T09:43:50.917Z,8
2016-12-30T09:45:03.921Z,8
2016-12-30T09:45:19.079Z,8
2016-12-30T09:50:04.490Z,4
2016-12-30T09:55:04.565Z,5
2016-12-30T10:00:04.292Z,5
2016-12-30T10:05:04.391Z,5
2016-12-30T10:10:04.255Z,6
2016-12-30T10:15:05.209Z,6
2016-12-30T10:20:05.060Z,4
2016-12-30T10:25:05.248Z,9
2016-12-30T10:30:05.085Z,3
2016-12-30T10:35:04.205Z,2
2016-12-30T10:40:04.379Z,6
2016-12-30T10:45:04.576Z,3
2016-12-30T10:50:04.282Z,3
2016-12-30T10:55:05.037Z,2
2016-12-30T11:00:04.897Z,2
2016-12-30T11:05:04.792Z,3
2016-12-30T11:10:04.989Z,6
2016-12-30T11:15:04.824Z,6
2016-12-30T11:20:04.907Z,3
2016-12-30T11:25:04.965Z,3
2016-12-30T11:30:04.876Z,8
2016-12-30T11:35:05.092Z,3
2016-12-30T11:40:04.262Z,4
2016-12-30T11:45:05.024Z,2
2016-12-30T11:50:04.983Z,2
2016-12-30T11:55:04.678Z,0
2016-12-30T12:00:04.386Z,0
2016-12-30T12:05:04.322Z,3
2016-12-30T12:10:04.687Z,3
2016-12-30T12:15:04.612Z,5
2016-12-30T12:20:04.575Z,2
2016-12-30T12:25:04.576Z,7
2016-12-30T12:30:04.582Z,3
2016-12-30T12:35:04.584Z,4
2016-12-30T12:40:04.804Z,4
2016-12-30T12:45:04.801Z,6
2016-12-30T12:50:04.966Z,6
2016-12-30T12:55:04.830Z,2
2016-12-30T13:00:04.762Z,0
2016-12-30T13:05:04.988Z,0
2016-12-30T13:10:04.384Z,2
2016-12-30T13:15:04.394Z,3
2016-12-30T13:20:05.103Z,0
2016-12-30T13:25:05.158Z,1
2016-12-30T13:30:04.197Z,3
2016-12-30T13:35:05.197Z,0
2016-12-30T13:40:04.410Z,3
2016-12-30T13:45:04.498Z,3
2016-12-30T13:50:04.317Z,3
2016-12-30T13:55:05.117Z,3
2016-12-30T14:00:04.954Z,3
2016-12-30T14:05:05.951Z,3
2016-12-30T14:10:04.852Z,4
2016-12-30T14:15:05.194Z,6
2016-12-30T14:20:04.535Z,4
2016-12-30T14:25:04.516Z,1
2016-12-30T14:30:04.425Z,4
2016-12-30T14:35:04.417Z,0
2016-12-30T14:40:05.121Z,2
2016-12-30T14:45:05.428Z,2
2016-12-30T14:50:04.258Z,3
2016-12-30T14:55:05.307Z,3
2016-12-30T15:00:05.109Z,2
2016-12-30T15:05:05.146Z,1
2016-12-30T15:10:05.139Z,3
2016-12-30T15:15:04.407Z,1
2016-12-30T15:20:04.450Z,1
2016-12-30T15:25:04.202Z,0
2016-12-30T15:30:05.085Z,0
2016-12-30T15:35:05.002Z,0
2016-12-30T15:40:04.203Z,0
2016-12-30T15:45:04.302Z,0
2016-12-30T15:50:04.420Z,0
2016-12-30T15:55:04.388Z,0
2016-12-30T16:00:04.335Z,0
2016-12-30T16:05:04.337Z,0
2016-12-30T16:10:04.495Z,0
2016-12-30T16:15:04.548Z,1
2016-12-30T16:20:04.524Z,0
2016-12-30T16:25:04.468Z,0
2016-12-30T16:30:05.177Z,1
2016-12-30T16:35:05.000Z,2
2016-12-30T16:40:04.396Z,2
2016-12-30T16:45:04.389Z,2
2016-12-30T16:50:04.393Z,2
2016-12-30T16:55:04.620Z,2
2016-12-30T17:00:04.562Z,2
2016-12-30T17:05:04.626Z,1
2016-12-30T17:10:04.633Z,0
2016-12-30T17:15:04.706Z,0
2016-12-30T17:20:04.782Z,0
2016-12-30T17:25:04.728Z,0
2016-12-30T17:30:04.747Z,0
2016-12-30T17:35:04.773Z,0
2016-12-30T17:40:05.042Z,0
2016-12-30T17:45:05.108Z,0
2016-12-30T17:50:05.281Z,2
2016-12-30T17:55:05.002Z,2
2016-12-30T18:00:05.034Z,0
2016-12-30T18:05:04.936Z,2
2016-12-30T18:10:04.994Z,2
2016-12-30T18:15:04.959Z,2
2016-12-30T18:20:05.052Z,2
2016-12-30T18:25:04.200Z,3
2016-12-30T18:30:05.144Z,3
2016-12-30T18:35:05.214Z,2
2016-12-30T18:40:04.377Z,3
2016-12-30T18:45:05.116Z,3
2016-12-30T18:50:04.237Z,2
2016-12-30T18:55:04.446Z,1
2016-12-30T19:00:04.404Z,3
2016-12-30T19:05:04.312Z,2
2016-12-30T19:10:04.375Z,3
2016-12-30T19:15:04.305Z,3
2016-12-30T19:20:04.320Z,2
2016-12-30T19:25:05.021Z,3
2016-12-30T19:30:04.637Z,2
2016-12-30T19:35:04.620Z,3
2016-12-30T19:40:05.026Z,2
2016-12-30T19:45:04.989Z,1
2016-12-30T19:50:05.195Z,1
2016-12-30T19:55:05.105Z,1
2016-12-30T20:00:05.069Z,2
2016-12-30T20:05:04.635Z,0
2016-12-30T20:10:05.051Z,1
2016-12-30T20:15:04.820Z,3
2016-12-30T20:20:04.900Z,1
2016-12-30T20:25:04.926Z,2
2016-12-30T20:30:04.803Z,2
2016-12-30T20:35:04.978Z,0
2016-12-30T20:40:04.328Z,3
2016-12-30T20:45:04.400Z,3
2016-12-30T20:50:05.146Z,2
2016-12-30T20:55:04.816Z,3
2016-12-30T21:00:04.893Z,1
2016-12-30T21:05:04.690Z,0
2016-12-30T21:10:05.000Z,0
2016-12-30T21:15:04.634Z,0
2016-12-30T21:20:04.411Z,2
2016-12-30T21:25:05.262Z,2
2016-12-30T21:30:04.273Z,1
2016-12-30T21:35:05.195Z,2
2016-12-30T21:40:04.394Z,0
2016-12-30T21:45:04.338Z,0
2016-12-30T21:50:04.223Z,1
2016-12-30T21:55:04.287Z,1
2016-12-30T22:00:04.384Z,0
2016-12-30T22:05:04.555Z,0
2016-12-30T22:10:04.612Z,0
2016-12-30T22:15:04.575Z,0
2016-12-30T22:20:04.582Z,0
2016-12-30T22:25:04.496Z,3
2016-12-30T22:30:04.692Z,2
2016-12-30T22:35:04.654Z,1
2016-12-30T22:40:04.748Z,3
2016-12-30T22:45:04.797Z,2
2016-12-30T22:50:04.800Z,1
2016-12-30T22:55:04.710Z,1
2016-12-30T23:00:04.686Z,2
2016-12-30T23:05:04.604Z,2
2016-12-30T23:10:04.617Z,3
2016-12-30T23:15:04.396Z,1
2016-12-30T23:20:04.429Z,2
2016-12-30T23:25:04.345Z,2
2016-12-30T23:30:04.285Z,0
2016-12-30T23:35:04.169Z,0
2016-12-30T23:40:04.287Z,0
2016-12-30T23:45:05.062Z,0
2016-12-30T23:50:04.969Z,2
2016-12-30T23:55:04.602Z,0
